createdAt,value
2018-04-18T00:01:26.983Z,93.80
2018-04-18T00:03:54.832Z,93.60
2018-04-18T00:06:22.316Z,93.90
2018-04-18T00:08:51.349Z,93.90
2018-04-18T00:11:19.025Z,93.80
2018-04-18T00:13:46.521Z,94.00
2018-04-18T00:16:14.776Z,94.00
2018-04-18T00:18:42.276Z,93.90
2018-04-18T00:21:09.858Z,94.00
2018-04-18T00:23:37.693Z,94.20
2018-04-18T00:26:05.205Z,94.10
2018-04-18T00:28:32.694Z,94.50
2018-04-18T00:31:01.371Z,94.20
2018-04-18T00:33:28.984Z,94.30
2018-04-18T00:35:56.472Z,94.20
2018-04-18T00:38:23.969Z,94.00
2018-04-18T00:40:52.140Z,94.00
2018-04-18T00:43:19.801Z,94.00
2018-04-18T00:45:47.686Z,94.10
2018-04-18T00:48:15.177Z,94.20
2018-04-18T00:50:42.797Z,94.20
2018-04-18T00:53:10.282Z,94.20
2018-04-18T00:55:38.345Z,94.30
2018-04-18T00:58:05.837Z,94.60
2018-04-18T01:00:33.336Z,94.40
2018-04-18T01:03:02.124Z,94.60
2018-04-18T01:05:29.766Z,94.60
2018-04-18T01:07:57.441Z,94.50
2018-04-18T01:10:26.481Z,94.50
2018-04-18T01:12:54.002Z,94.20
2018-04-18T01:15:21.686Z,94.30
2018-04-18T01:17:49.202Z,94.70
2018-04-18T01:20:17.298Z,94.80
2018-04-18T01:22:45.095Z,94.80
2018-04-18T01:25:12.596Z,94.80
2018-04-18T01:27:40.088Z,95.00
2018-04-18T01:30:08.150Z,94.90
2018-04-18T01:32:36.029Z,94.80
2018-04-18T01:35:03.884Z,94.90
2018-04-18T01:37:31.383Z,95.00
2018-04-18T01:39:58.902Z,94.70
2018-04-18T01:42:26.808Z,95.10
2018-04-18T01:44:54.320Z,95.10
2018-04-18T01:47:21.871Z,95.00
2018-04-18T01:49:50.162Z,95.00
2018-04-18T01:52:17.890Z,95.00
2018-04-18T01:54:45.797Z,95.10
2018-04-18T01:57:13.646Z,95.20
2018-04-18T01:59:41.497Z,95.20
2018-04-18T02:02:09.269Z,95.40
2018-04-18T02:04:37.661Z,95.10
2018-04-18T02:07:05.164Z,95.10
2018-04-18T02:09:32.666Z,95.30
2018-04-18T02:12:01.905Z,95.20
2018-04-18T02:14:29.523Z,95.20
2018-04-18T02:16:57.801Z,95.00
2018-04-18T02:19:26.410Z,94.90
2018-04-18T02:21:53.954Z,94.90
2018-04-18T02:24:21.709Z,95.10
2018-04-18T02:26:49.329Z,95.10
2018-04-18T02:29:16.862Z,95.20
2018-04-18T02:31:45.642Z,95.10
2018-04-18T02:34:13.130Z,95.20
2018-04-18T02:36:40.848Z,95.20
2018-04-18T02:39:08.330Z,95.10
2018-04-18T02:41:35.813Z,95.00
2018-04-18T02:44:03.309Z,95.10
2018-04-18T02:46:31.001Z,95.20
2018-04-18T02:48:58.798Z,95.30
2018-04-18T02:51:26.334Z,95.20
2018-04-18T02:53:53.844Z,95.20
2018-04-18T02:56:22.154Z,95.50
2018-04-18T02:58:49.816Z,95.40
2018-04-18T03:01:17.316Z,95.30
2018-04-18T03:03:45.929Z,95.10
2018-04-18T03:06:13.425Z,95.10
2018-04-18T03:08:41.361Z,95.10
2018-04-18T03:11:09.112Z,95.10
2018-04-18T03:13:38.118Z,94.90
2018-04-18T03:16:05.604Z,94.90
2018-04-18T03:18:33.092Z,94.80
2018-04-18T03:21:00.687Z,95.30
2018-04-18T03:23:28.449Z,95.10
2018-04-18T03:25:56.705Z,95.10
2018-04-18T03:28:25.729Z,95.30
2018-04-18T03:30:53.679Z,95.00
2018-04-18T03:33:21.725Z,94.80
2018-04-18T03:35:49.203Z,95.00
2018-04-18T03:38:17.189Z,95.10
2018-04-18T03:40:47.027Z,94.90
2018-04-18T03:43:14.500Z,94.90
2018-04-18T03:45:42.346Z,95.20
2018-04-18T03:48:10.197Z,95.00
2018-04-18T03:50:37.686Z,95.00
2018-04-18T03:53:05.193Z,95.30
2018-04-18T03:55:33.446Z,95.20
2018-04-18T03:58:01.274Z,95.20
2018-04-18T04:00:29.110Z,95.30
2018-04-18T04:02:56.598Z,95.30
2018-04-18T04:05:24.675Z,95.30
2018-04-18T04:07:52.586Z,95.30
2018-04-18T04:10:20.090Z,95.50
2018-04-18T04:12:47.623Z,95.60
2018-04-18T04:15:15.715Z,95.50
2018-04-18T04:17:55.020Z,95.70
2018-04-18T04:20:34.587Z,95.90
2018-04-18T04:23:13.730Z,95.80
2018-04-18T04:25:41.700Z,96.10
2018-04-18T04:28:09.557Z,95.90
2018-04-18T04:30:37.615Z,95.80
2018-04-18T04:33:05.603Z,95.80
2018-04-18T04:35:33.232Z,96.20
2018-04-18T04:38:00.732Z,96.10
2018-04-18T04:40:28.355Z,95.70
2018-04-18T04:42:56.133Z,95.50
2018-04-18T04:45:23.687Z,95.50
2018-04-18T04:47:51.179Z,95.90
2018-04-18T04:50:18.804Z,95.80
2018-04-18T04:52:46.309Z,95.60
2018-04-18T04:55:14.125Z,95.40
2018-04-18T04:57:41.792Z,95.30
2018-04-18T05:00:09.280Z,95.20
2018-04-18T05:02:36.956Z,94.90
2018-04-18T05:05:06.609Z,95.50
2018-04-18T05:07:34.098Z,95.20
2018-04-18T05:10:02.022Z,95.00
2018-04-18T05:12:30.275Z,95.20
2018-04-18T05:14:58.898Z,95.10
2018-04-18T05:17:26.587Z,94.80
2018-04-18T05:19:54.084Z,94.40
2018-04-18T05:22:22.168Z,94.00
2018-04-18T05:24:50.064Z,94.00
2018-04-18T05:27:18.675Z,93.90
2018-04-18T05:29:46.705Z,94.00
2018-04-18T05:32:14.207Z,94.00
2018-04-18T05:34:42.229Z,94.20
2018-04-18T05:37:09.749Z,93.70
2018-04-18T05:39:37.674Z,93.60
2018-04-18T05:42:05.624Z,93.50
2018-04-18T05:44:34.007Z,93.00
2018-04-18T05:47:01.493Z,93.00
2018-04-18T05:49:28.980Z,93.10
2018-04-18T05:51:56.580Z,92.80
2018-04-18T05:54:24.932Z,92.00
2018-04-18T05:56:53.034Z,92.00
2018-04-18T05:59:21.727Z,91.90
2018-04-18T06:01:49.386Z,91.90
2018-04-18T06:04:17.719Z,91.50
2018-04-18T06:06:45.208Z,90.80
2018-04-18T06:09:13.810Z,81.50
2018-04-18T06:11:41.317Z,81.50
2018-04-18T06:14:09.275Z,72.80
2018-04-18T06:16:36.802Z,63.30
2018-04-18T06:19:04.743Z,56.30
2018-04-18T06:21:33.083Z,48.80
2018-04-18T06:24:00.595Z,48.80
2018-04-18T06:26:28.332Z,47.50
2018-04-18T06:28:57.236Z,46.60
2018-04-18T06:31:24.918Z,46.40
2018-04-18T06:33:52.412Z,44.10
2018-04-18T06:36:20.534Z,44.50
2018-04-18T06:38:48.828Z,44.80
2018-04-18T06:41:16.393Z,44.80
2018-04-18T06:43:44.343Z,45.30
2018-04-18T06:46:11.849Z,46.00
2018-04-18T06:48:39.666Z,45.00
2018-04-18T06:51:07.173Z,44.10
2018-04-18T06:53:34.900Z,43.80
2018-04-18T06:56:02.578Z,41.10
2018-04-18T06:58:30.067Z,38.30
2018-04-18T07:00:57.863Z,38.10
2018-04-18T07:03:26.312Z,36.60
2018-04-18T07:05:54.426Z,36.60
2018-04-18T07:08:21.970Z,36.50
2018-04-18T07:10:49.477Z,35.40
2018-04-18T07:13:17.398Z,32.70
2018-04-18T07:15:45.284Z,33.90
2018-04-18T07:18:12.764Z,32.00
2018-04-18T07:20:40.274Z,32.60
2018-04-18T07:23:08.928Z,33.10
2018-04-18T07:25:36.729Z,33.00
2018-04-18T07:28:05.743Z,30.00
2018-04-18T07:30:33.501Z,30.00
2018-04-18T07:33:01.018Z,29.50
2018-04-18T07:35:29.349Z,29.80
2018-04-18T07:37:56.846Z,31.00
2018-04-18T07:40:24.750Z,30.40
2018-04-18T07:42:53.954Z,29.10
2018-04-18T07:45:21.716Z,29.00
2018-04-18T07:47:49.369Z,29.00
2018-04-18T07:50:16.871Z,28.60
2018-04-18T07:52:44.381Z,27.60
2018-04-18T07:55:11.929Z,28.30
2018-04-18T07:57:40.730Z,29.40
2018-04-18T08:00:08.228Z,29.30
2018-04-18T08:02:36.064Z,29.60
2018-04-18T08:05:03.755Z,29.00
2018-04-18T08:07:31.516Z,29.00
2018-04-18T08:09:59.001Z,28.50
2018-04-18T08:12:26.517Z,28.50
2018-04-18T08:14:54.019Z,29.00
2018-04-18T08:17:21.968Z,30.40
2018-04-18T08:19:49.733Z,30.80
2018-04-18T08:22:17.230Z,29.30
2018-04-18T08:24:45.255Z,28.90
2018-04-18T08:27:13.056Z,28.50
2018-04-18T08:29:40.547Z,27.00
2018-04-18T08:32:08.044Z,25.90
2018-04-18T08:34:35.524Z,28.20
2018-04-18T08:37:03.462Z,29.60
2018-04-18T08:39:30.942Z,29.70
2018-04-18T08:41:58.439Z,26.90
2018-04-18T08:44:26.955Z,25.80
2018-04-18T08:46:54.444Z,25.80
2018-04-18T08:49:23.232Z,26.30
2018-04-18T08:51:50.721Z,26.10
2018-04-18T08:54:18.224Z,24.00
2018-04-18T08:56:45.717Z,25.00
2018-04-18T08:59:13.222Z,26.00
2018-04-18T09:01:40.732Z,25.90
2018-04-18T09:04:08.253Z,27.10
2018-04-18T09:06:36.660Z,27.80
2018-04-18T09:09:04.185Z,26.40
2018-04-18T09:11:31.715Z,26.70
2018-04-18T09:14:00.106Z,24.90
2018-04-18T09:16:27.817Z,24.90
2018-04-18T09:18:55.337Z,27.10
2018-04-18T09:21:23.219Z,26.10
2018-04-18T09:23:51.019Z,26.60
2018-04-18T09:26:19.444Z,26.90
2018-04-18T09:28:47.088Z,26.70
2018-04-18T09:31:15.459Z,28.10
2018-04-18T09:33:43.719Z,25.50
2018-04-18T09:36:11.227Z,25.50
2018-04-18T09:38:38.743Z,24.90
2018-04-18T09:41:07.386Z,25.90
2018-04-18T09:43:34.889Z,25.90
2018-04-18T09:46:03.509Z,24.70
2018-04-18T09:48:31.075Z,24.70
2018-04-18T09:50:58.895Z,25.30
2018-04-18T09:53:27.180Z,25.40
2018-04-18T09:55:55.196Z,25.40
2018-04-18T09:58:22.768Z,23.00
2018-04-18T10:00:56.195Z,24.50
2018-04-18T10:03:23.908Z,25.90
2018-04-18T10:05:52.259Z,26.00
2018-04-18T10:08:19.957Z,24.80
2018-04-18T10:10:48.011Z,24.50
2018-04-18T10:13:15.975Z,26.50
2018-04-18T10:15:43.568Z,24.70
2018-04-18T10:18:11.370Z,22.40
2018-04-18T10:20:40.213Z,24.80
2018-04-18T10:23:09.061Z,24.80
2018-04-18T10:25:36.949Z,23.30
2018-04-18T10:28:04.485Z,23.10
2018-04-18T10:30:31.958Z,22.90
2018-04-18T10:32:59.449Z,22.60
2018-04-18T10:35:26.969Z,25.30
2018-04-18T10:37:54.818Z,25.80
2018-04-18T10:40:22.594Z,23.80
2018-04-18T10:42:50.111Z,22.40
2018-04-18T13:45:29.186Z,29.60
2018-04-18T13:47:56.720Z,30.80
2018-04-18T13:50:24.227Z,31.00
2018-04-18T13:52:51.844Z,31.20
2018-04-18T13:55:19.660Z,30.70
2018-04-18T13:57:47.465Z,31.30
2018-04-18T14:00:15.066Z,31.70
2018-04-18T14:02:42.831Z,29.80
2018-04-18T14:05:10.356Z,29.50
2018-04-18T14:07:38.221Z,30.20
2018-04-18T14:10:05.770Z,32.00
2018-04-18T14:12:33.342Z,33.40
2018-04-18T14:15:00.842Z,31.60
2018-04-18T14:17:28.670Z,31.80
2018-04-18T14:19:56.933Z,31.50
2018-04-18T14:22:24.438Z,30.20
2018-04-18T14:24:52.339Z,29.90
2018-04-18T14:27:20.423Z,29.90
2018-04-18T14:29:48.228Z,28.70
2018-04-18T14:32:15.890Z,29.40
2018-04-18T14:34:43.624Z,29.20
2018-04-18T14:37:12.432Z,29.50
2018-04-18T14:39:44.126Z,29.60
2018-04-18T14:42:12.071Z,29.60
2018-04-18T14:44:39.589Z,29.80
2018-04-18T14:47:07.312Z,30.50
2018-04-18T14:49:35.200Z,29.70
2018-04-18T14:52:04.335Z,29.00
2018-04-18T14:54:31.986Z,29.00
2018-04-18T14:56:59.489Z,30.20
2018-04-18T14:59:27.230Z,29.50
2018-04-18T15:01:54.722Z,29.40
2018-04-18T15:04:22.584Z,30.80
2018-04-18T15:06:50.095Z,31.70
2018-04-18T15:09:18.127Z,30.60
2018-04-18T15:11:45.674Z,29.20
2018-04-18T15:14:13.362Z,29.40
2018-04-18T15:16:40.922Z,29.40
2018-04-18T15:19:08.431Z,29.90
2018-04-18T15:21:36.162Z,30.30
2018-04-18T15:24:03.698Z,30.20
2018-04-18T15:26:31.456Z,29.40
2018-04-18T15:28:58.962Z,29.10
2018-04-18T15:31:26.975Z,29.40
2018-04-18T15:33:54.497Z,29.40
2018-04-18T15:36:22.651Z,29.10
2018-04-18T15:38:50.482Z,28.90
2018-04-18T15:41:18.338Z,28.80
2018-04-18T15:43:46.020Z,29.30
2018-04-18T15:46:13.539Z,29.90
2018-04-18T15:48:41.082Z,27.70
2018-04-18T15:51:08.596Z,27.70
2018-04-18T15:53:36.332Z,27.90
2018-04-18T15:56:04.427Z,27.80
2018-04-18T15:58:31.943Z,28.50
2018-04-18T16:01:00.316Z,29.60
2018-04-18T16:03:28.781Z,29.60
2018-04-18T16:05:56.430Z,29.40
2018-04-18T16:08:24.207Z,29.50
2018-04-18T16:10:52.208Z,29.40
2018-04-18T16:13:20.026Z,29.10
2018-04-18T16:15:48.205Z,28.80
2018-04-18T16:18:16.436Z,29.40
2018-04-18T16:20:44.020Z,28.90
2018-04-18T16:23:11.646Z,28.80
2018-04-18T16:25:39.625Z,29.00
2018-04-18T16:28:08.082Z,29.00
2018-04-18T16:30:42.626Z,30.00
2018-04-18T16:33:10.773Z,29.80
2018-04-18T16:35:41.420Z,30.00
2018-04-18T16:38:09.116Z,30.70
2018-04-18T16:40:36.624Z,30.40
2018-04-18T16:43:04.206Z,30.30
2018-04-18T16:45:31.841Z,31.20
2018-04-18T16:47:59.779Z,29.90
2018-04-18T16:50:27.606Z,30.70
2018-04-18T16:52:55.774Z,30.70
2018-04-18T16:55:23.303Z,31.30
2018-04-18T16:57:51.410Z,31.20
2018-04-18T17:00:19.472Z,32.00
2018-04-18T17:02:47.848Z,32.20
2018-04-18T17:05:16.314Z,32.40
2018-04-18T17:07:44.067Z,33.30
2018-04-18T17:10:12.801Z,33.20
2018-04-18T17:12:41.318Z,34.60
2018-04-18T17:15:09.744Z,34.60
2018-04-18T17:17:37.652Z,34.10
2018-04-18T17:20:05.301Z,34.20
2018-04-18T17:22:33.244Z,34.50
2018-04-18T17:25:00.960Z,35.00
2018-04-18T17:27:29.167Z,35.30
2018-04-18T17:29:57.847Z,35.70
2018-04-18T17:32:26.886Z,36.60
2018-04-18T17:34:55.029Z,36.60
2018-04-18T17:37:22.818Z,37.30
2018-04-18T17:39:50.445Z,38.30
2018-04-18T17:42:18.857Z,38.70
2018-04-18T17:44:46.346Z,39.00
2018-04-18T17:47:13.865Z,39.60
2018-04-18T17:49:41.601Z,40.40
2018-04-18T17:52:09.481Z,40.80
2018-04-18T17:54:37.110Z,41.10
2018-04-18T17:57:05.735Z,41.50
2018-04-18T17:59:34.339Z,42.20
2018-04-18T18:02:01.835Z,42.20
2018-04-18T18:04:29.477Z,42.50
2018-04-18T18:06:58.141Z,43.30
2018-04-18T18:09:26.528Z,43.80
2018-04-18T18:11:54.606Z,44.10
2018-04-18T18:14:23.896Z,44.30
2018-04-18T18:16:52.763Z,44.70
2018-04-18T18:19:21.628Z,45.20
2018-04-18T18:21:49.376Z,45.20
2018-04-18T18:24:17.049Z,46.00
2018-04-18T18:26:44.926Z,46.30
2018-04-18T18:29:14.183Z,46.50
2018-04-18T18:31:41.699Z,46.70
2018-04-18T18:34:09.979Z,46.90
2018-04-18T18:36:38.675Z,47.20
2018-04-18T18:39:07.918Z,47.40
2018-04-18T18:41:36.310Z,47.40
2018-04-18T18:44:04.413Z,47.50
2018-04-18T18:46:32.316Z,48.30
2018-04-18T18:49:00.998Z,48.40
2018-04-18T18:51:28.515Z,49.00
2018-04-18T18:53:56.908Z,49.20
2018-04-18T18:56:26.163Z,49.80
2018-04-18T18:58:53.792Z,50.60
2018-04-18T19:01:21.611Z,50.70
2018-04-18T19:03:51.113Z,51.10
2018-04-18T19:06:18.617Z,51.30
2018-04-18T19:08:48.557Z,51.20
2018-04-18T19:11:16.504Z,51.30
2018-04-18T19:13:44.015Z,51.50
2018-04-18T19:16:11.501Z,51.40
2018-04-18T19:18:39.318Z,51.60
2018-04-18T19:21:09.607Z,52.00
2018-04-18T19:23:37.141Z,51.20
2018-04-18T19:26:05.288Z,51.90
2018-04-18T19:28:33.647Z,51.80
2018-04-18T19:31:01.868Z,52.00
2018-04-18T19:33:30.140Z,52.50
2018-04-18T19:36:01.989Z,52.50
2018-04-18T19:38:30.105Z,53.30
2018-04-18T19:40:57.644Z,53.40
2018-04-18T19:43:25.744Z,53.90
2018-04-18T19:45:53.801Z,54.70
2018-04-18T19:48:21.305Z,54.60
2018-04-18T19:50:49.069Z,54.80
2018-04-18T19:53:16.989Z,54.80
2018-04-18T19:55:44.492Z,55.30
2018-04-18T19:58:12.111Z,55.30
2018-04-18T20:00:40.037Z,55.40
2018-04-18T20:03:07.525Z,55.50
2018-04-18T20:05:35.287Z,55.90
2018-04-18T20:08:04.106Z,57.70
2018-04-18T20:10:31.627Z,57.70
2018-04-18T20:12:59.129Z,58.40
2018-04-18T20:15:26.643Z,58.80
2018-04-18T20:17:55.862Z,59.50
2018-04-18T20:20:23.940Z,59.50
2018-04-18T20:22:51.451Z,60.00
2018-04-18T20:25:19.720Z,61.50
2018-04-18T20:27:47.235Z,60.80
2018-04-18T20:30:14.789Z,61.30
2018-04-18T20:32:42.943Z,61.90
2018-04-18T20:35:10.489Z,61.70
2018-04-18T20:37:38.036Z,62.50
2018-04-18T20:40:05.797Z,62.60
2018-04-18T20:42:33.349Z,62.60
2018-04-18T20:45:01.269Z,63.50
2018-04-18T20:47:29.138Z,63.90
2018-04-18T20:49:57.103Z,64.20
2018-04-18T20:52:24.629Z,64.60
2018-04-18T20:54:53.181Z,65.30
2018-04-18T20:57:20.693Z,65.30
2018-04-18T20:59:50.091Z,65.90
2018-04-18T21:02:17.660Z,67.20
2018-04-18T21:04:46.294Z,67.70
2018-04-18T21:07:14.192Z,68.00
2018-04-18T21:09:41.866Z,68.40
2018-04-18T21:12:09.363Z,69.30
2018-04-18T21:14:37.002Z,69.60
2018-04-18T21:17:04.523Z,69.80
2018-04-18T21:19:32.428Z,70.00
2018-04-18T21:21:59.975Z,70.30
2018-04-18T21:24:27.728Z,70.00
2018-04-18T21:26:55.615Z,70.40
2018-04-18T21:29:24.105Z,70.80
2018-04-18T21:31:51.843Z,70.40
2018-04-18T21:34:19.508Z,70.60
2018-04-18T21:36:47.296Z,71.10
2018-04-18T21:39:14.890Z,72.10
2018-04-18T21:41:42.633Z,72.70
2018-04-18T21:44:10.457Z,73.10
2018-04-18T21:46:37.953Z,72.80
2018-04-18T21:49:05.774Z,72.80
2018-04-18T21:51:33.330Z,72.80
2018-04-18T21:54:02.575Z,73.30
2018-04-18T21:56:30.493Z,73.20
2018-04-18T21:58:59.100Z,73.60
2018-04-18T22:01:26.945Z,73.50
2018-04-18T22:03:54.611Z,73.90
2018-04-18T22:06:22.687Z,74.90
2018-04-18T22:08:50.537Z,75.30
2018-04-18T22:11:18.031Z,75.60
2018-04-18T22:13:45.817Z,76.20
2018-04-18T22:16:14.361Z,76.10
2018-04-18T22:18:41.864Z,76.80
2018-04-18T22:21:09.903Z,77.00
2018-04-18T22:23:37.398Z,77.60
2018-04-18T22:26:05.171Z,78.00
2018-04-18T22:28:32.677Z,78.00
2018-04-18T22:31:00.445Z,78.20
2018-04-18T22:33:28.204Z,78.70
2018-04-18T22:35:55.808Z,78.70
2018-04-18T22:38:23.819Z,78.50
2018-04-18T22:40:51.480Z,78.10
2018-04-18T22:43:18.961Z,78.80
2018-04-18T22:45:47.269Z,79.20
2018-04-18T22:48:14.810Z,79.50
2018-04-18T22:50:42.660Z,79.70
2018-04-18T22:53:10.497Z,80.60
2018-04-18T22:55:38.577Z,80.80
2018-04-18T22:58:06.163Z,80.40
2018-04-18T23:00:34.088Z,80.60
2018-04-18T23:03:01.588Z,80.70
2018-04-18T23:05:29.432Z,81.70
2018-04-18T23:07:57.033Z,81.90
2018-04-18T23:10:24.551Z,82.40
2018-04-18T23:12:52.405Z,81.70
2018-04-18T23:15:21.002Z,81.10
2018-04-18T23:17:48.729Z,81.10
2018-04-18T23:20:16.326Z,81.90
2018-04-18T23:22:43.816Z,82.80
2018-04-18T23:25:11.463Z,83.30
2018-04-18T23:27:39.107Z,83.20
2018-04-18T23:30:06.783Z,83.90
2018-04-18T23:32:34.303Z,83.90
2018-04-18T23:35:02.653Z,84.70
2018-04-18T23:37:30.577Z,83.90
2018-04-18T23:39:58.249Z,83.80
2018-04-18T23:42:26.285Z,84.00
2018-04-18T23:44:53.768Z,85.70
2018-04-18T23:47:22.003Z,84.90
2018-04-18T23:49:50.996Z,85.30
2018-04-18T23:52:18.485Z,85.30
2018-04-18T23:54:45.993Z,85.20
2018-04-18T23:57:13.720Z,86.10
2018-04-18T23:59:41.234Z,86.70
